createdAt,value
2018-12-10T00:00:24.989Z,7.87
2018-12-10T00:00:51.091Z,7.87
2018-12-10T00:01:17.196Z,7.85
2018-12-10T00:01:43.301Z,7.83
2018-12-10T00:02:09.468Z,7.82
2018-12-10T00:02:35.604Z,7.79
2018-12-10T00:03:01.904Z,7.9
2018-12-10T00:03:28.042Z,7.82
2018-12-10T00:03:54.140Z,7.94
2018-12-10T00:04:20.249Z,7.91
2018-12-10T00:04:46.357Z,7.95
2018-12-10T00:05:12.494Z,7.83
2018-12-10T00:05:38.595Z,7.83
2018-12-10T00:06:04.701Z,7.85
2018-12-10T00:06:30.813Z,7.91
2018-12-10T00:06:56.914Z,7.8
2018-12-10T00:07:23.021Z,7.85
2018-12-10T00:07:49.127Z,7.87
2018-12-10T00:08:15.284Z,7.77
2018-12-10T00:08:41.388Z,7.83
2018-12-10T00:09:07.553Z,7.77
2018-12-10T00:09:33.655Z,7.88
2018-12-10T00:09:59.756Z,7.85
2018-12-10T00:10:25.875Z,7.8
2018-12-10T00:10:52.996Z,7.79
2018-12-10T00:11:19.100Z,7.75
2018-12-10T00:11:45.210Z,7.85
2018-12-10T00:12:11.313Z,7.83
2018-12-10T00:12:37.417Z,7.88
2018-12-10T00:13:03.586Z,7.88
2018-12-10T00:13:29.690Z,7.87
2018-12-10T00:13:55.824Z,7.85
2018-12-10T00:14:21.970Z,7.85
2018-12-10T00:14:48.097Z,7.85
2018-12-10T00:15:14.231Z,7.8
2018-12-10T00:15:40.336Z,7.85
2018-12-10T00:16:06.443Z,7.88
2018-12-10T00:16:32.540Z,7.88
2018-12-10T00:16:58.702Z,7.8
2018-12-10T00:17:24.799Z,7.94
2018-12-10T00:17:50.930Z,7.87
2018-12-10T00:18:17.056Z,7.94
2018-12-10T00:18:43.160Z,7.94
2018-12-10T00:19:09.266Z,7.98
2018-12-10T00:19:35.382Z,7.94
2018-12-10T00:20:01.482Z,7.95
2018-12-10T00:20:27.612Z,7.79
2018-12-10T00:20:53.717Z,7.87
2018-12-10T00:21:19.818Z,7.91
2018-12-10T00:21:45.927Z,7.9
2018-12-10T00:22:12.062Z,7.94
2018-12-10T00:22:38.270Z,7.94
2018-12-10T00:23:04.381Z,7.9
2018-12-10T00:23:30.511Z,7.9
2018-12-10T00:23:56.608Z,8.03
2018-12-10T00:24:22.713Z,7.98
2018-12-10T00:24:48.825Z,8
2018-12-10T00:25:14.924Z,7.98
2018-12-10T00:25:41.035Z,7.95
2018-12-10T00:26:07.141Z,7.97
2018-12-10T00:26:33.246Z,7.95
2018-12-10T00:26:59.351Z,7.97
2018-12-10T00:27:25.510Z,7.98
2018-12-10T00:27:51.618Z,7.95
2018-12-10T00:28:17.729Z,7.93
2018-12-10T00:28:43.837Z,7.97
2018-12-10T00:29:09.947Z,8.05
2018-12-10T00:29:36.044Z,7.94
2018-12-10T00:30:02.153Z,7.94
2018-12-10T00:30:28.258Z,7.95
2018-12-10T00:30:54.366Z,8
2018-12-10T00:31:20.470Z,7.98
2018-12-10T00:31:46.573Z,7.98
2018-12-10T00:32:12.676Z,7.93
2018-12-10T00:32:38.809Z,8.01
2018-12-10T00:33:04.915Z,7.98
2018-12-10T00:33:31.091Z,7.95
2018-12-10T00:33:57.195Z,8
2018-12-10T00:34:23.296Z,7.93
2018-12-10T00:34:49.407Z,7.97
2018-12-10T00:35:15.506Z,8.01
2018-12-10T00:35:41.614Z,7.93
2018-12-10T00:36:07.715Z,7.97
2018-12-10T00:36:33.824Z,7.98
2018-12-10T00:36:59.934Z,7.98
2018-12-10T00:37:26.036Z,7.94
2018-12-10T00:37:52.170Z,8.03
2018-12-10T00:38:18.303Z,7.94
2018-12-10T00:38:44.405Z,7.91
2018-12-10T00:39:10.511Z,7.97
2018-12-10T00:39:36.610Z,7.94
2018-12-10T00:40:02.719Z,7.77
2018-12-10T00:40:28.828Z,7.82
2018-12-10T00:40:54.961Z,7.94
2018-12-10T00:41:21.095Z,7.91
2018-12-10T00:41:47.202Z,7.9
2018-12-10T00:42:13.303Z,7.83
2018-12-10T00:42:39.412Z,7.91
2018-12-10T00:43:05.516Z,7.95
2018-12-10T00:43:31.613Z,7.94
2018-12-10T00:43:57.730Z,7.91
2018-12-10T00:44:23.828Z,7.98
2018-12-10T00:44:49.955Z,7.97
2018-12-10T00:45:16.058Z,7.93
2018-12-10T00:45:42.165Z,7.94
2018-12-10T00:46:08.270Z,7.83
2018-12-10T00:46:34.414Z,7.83
2018-12-10T00:47:00.518Z,7.83
2018-12-10T00:47:26.617Z,7.83
2018-12-10T00:47:52.756Z,7.76
2018-12-10T00:48:18.861Z,7.76
2018-12-10T00:48:44.967Z,7.79
2018-12-10T00:49:11.121Z,7.79
2018-12-10T00:49:37.231Z,7.77
2018-12-10T00:50:03.371Z,7.82
2018-12-10T00:50:29.479Z,7.83
2018-12-10T00:50:55.605Z,7.82
2018-12-10T00:51:21.706Z,7.82
2018-12-10T00:51:47.816Z,7.72
2018-12-10T00:52:13.922Z,7.79
2018-12-10T00:52:40.066Z,7.76
2018-12-10T00:53:06.170Z,7.73
2018-12-10T00:53:32.306Z,7.67
2018-12-10T00:53:58.415Z,7.72
2018-12-10T00:54:24.548Z,7.69
2018-12-10T00:54:50.683Z,7.7
2018-12-10T00:55:16.784Z,7.69
2018-12-10T00:55:42.894Z,7.69
2018-12-10T00:56:08.995Z,7.7
2018-12-10T00:56:35.108Z,7.67
2018-12-10T00:57:01.208Z,7.69
2018-12-10T00:57:27.323Z,7.75
2018-12-10T00:57:53.436Z,7.79
2018-12-10T00:58:19.539Z,7.79
2018-12-10T00:58:45.635Z,7.7
2018-12-10T00:59:11.748Z,7.73
2018-12-10T00:59:37.853Z,7.67
2018-12-10T01:00:03.957Z,7.69
2018-12-10T01:00:30.064Z,7.72
2018-12-10T01:00:56.165Z,7.69
2018-12-10T01:01:22.278Z,7.69
2018-12-10T01:01:48.381Z,7.76
2018-12-10T01:02:14.515Z,7.73
2018-12-10T01:02:40.617Z,7.72
2018-12-10T01:03:06.723Z,7.72
2018-12-10T01:03:32.829Z,7.67
2018-12-10T01:03:58.936Z,7.72
2018-12-10T01:04:25.031Z,7.69
2018-12-10T01:04:51.136Z,7.67
2018-12-10T01:05:17.248Z,7.72
2018-12-10T01:05:43.385Z,7.72
2018-12-10T01:06:09.491Z,7.67
2018-12-10T01:06:35.600Z,7.69
2018-12-10T01:07:02.689Z,7.7
2018-12-10T01:07:28.794Z,7.54
2018-12-10T01:07:54.910Z,7.6
2018-12-10T01:08:21.038Z,7.66
2018-12-10T01:08:47.145Z,7.56
2018-12-10T01:09:13.255Z,7.5
2018-12-10T01:09:39.358Z,7.54
2018-12-10T01:10:05.460Z,7.58
2018-12-10T01:10:31.566Z,7.54
2018-12-10T01:10:57.711Z,7.51
2018-12-10T01:11:23.812Z,7.53
2018-12-10T01:11:49.909Z,7.48
2018-12-10T01:12:16.014Z,7.45
2018-12-10T01:12:42.117Z,7.45
2018-12-10T01:13:08.219Z,7.48
2018-12-10T01:13:34.322Z,7.53
2018-12-10T01:14:00.432Z,7.51
2018-12-10T01:14:26.562Z,7.53
2018-12-10T01:14:52.667Z,7.51
2018-12-10T01:15:18.802Z,7.6
2018-12-10T01:15:44.904Z,7.56
2018-12-10T01:16:11.000Z,7.58
2018-12-10T01:16:37.115Z,7.51
2018-12-10T01:17:03.216Z,7.54
2018-12-10T01:17:29.418Z,7.58
2018-12-10T01:17:55.469Z,7.7
2018-12-10T01:18:21.572Z,7.66
2018-12-10T01:18:47.675Z,7.66
2018-12-10T01:19:13.778Z,7.63
2018-12-10T01:19:39.914Z,7.61
2018-12-10T01:20:06.048Z,7.66
2018-12-10T01:20:32.147Z,7.6
2018-12-10T01:20:58.288Z,7.54
2018-12-10T01:21:24.409Z,7.58
2018-12-10T01:21:50.515Z,7.63
2018-12-10T01:22:16.624Z,7.61
2018-12-10T01:22:42.728Z,7.66
2018-12-10T01:23:08.821Z,7.69
2018-12-10T01:23:34.932Z,7.63
2018-12-10T01:24:01.033Z,7.61
2018-12-10T01:24:27.140Z,7.63
2018-12-10T01:24:53.282Z,7.61
2018-12-10T01:25:19.385Z,7.56
2018-12-10T01:25:45.494Z,7.58
2018-12-10T01:26:11.594Z,7.67
2018-12-10T01:26:37.698Z,7.6
2018-12-10T01:27:03.801Z,7.66
2018-12-10T01:27:29.902Z,7.61
2018-12-10T01:27:56.009Z,7.6
2018-12-10T01:28:22.120Z,7.67
2018-12-10T01:28:48.246Z,7.67
2018-12-10T01:29:14.355Z,7.6
2018-12-10T01:29:40.458Z,7.66
2018-12-10T01:30:06.558Z,7.53
2018-12-10T01:30:32.663Z,7.63
2018-12-10T01:30:58.808Z,7.5
2018-12-10T01:31:24.905Z,7.56
2018-12-10T01:31:51.018Z,7.57
2018-12-10T01:32:17.122Z,7.51
2018-12-10T01:32:43.219Z,7.54
2018-12-10T01:33:09.351Z,7.57
2018-12-10T01:33:35.456Z,7.58
2018-12-10T01:34:01.560Z,7.53
2018-12-10T01:34:27.666Z,7.53
2018-12-10T01:34:53.772Z,7.51
2018-12-10T01:35:19.869Z,7.51
2018-12-10T01:35:45.975Z,7.53
2018-12-10T01:36:12.073Z,7.56
2018-12-10T01:36:38.198Z,7.48
2018-12-10T01:37:04.285Z,7.5
2018-12-10T01:37:30.425Z,7.6
2018-12-10T01:37:56.535Z,7.48
2018-12-10T01:38:22.635Z,7.42
2018-12-10T01:38:48.737Z,7.48
2018-12-10T01:39:14.841Z,7.45
2018-12-10T01:39:40.981Z,7.42
2018-12-10T01:40:07.104Z,7.42
2018-12-10T01:40:33.206Z,7.47
2018-12-10T01:40:59.315Z,7.4
2018-12-10T01:41:25.420Z,7.51
2018-12-10T01:41:51.524Z,7.45
2018-12-10T01:42:17.663Z,7.45
2018-12-10T01:42:43.791Z,7.39
2018-12-10T01:43:09.932Z,7.43
2018-12-10T01:43:36.087Z,7.47
2018-12-10T01:44:02.191Z,7.45
2018-12-10T01:44:28.339Z,7.45
2018-12-10T01:44:54.442Z,7.45
2018-12-10T01:45:20.581Z,7.42
2018-12-10T01:45:46.691Z,7.47
2018-12-10T01:46:12.825Z,7.4
2018-12-10T01:46:38.923Z,7.48
2018-12-10T01:47:05.034Z,7.42
2018-12-10T01:47:31.192Z,7.38
2018-12-10T01:47:57.296Z,7.43
2018-12-10T01:48:23.398Z,7.43
2018-12-10T01:48:49.509Z,7.4
2018-12-10T01:49:15.616Z,7.42
2018-12-10T01:49:41.720Z,7.51
2018-12-10T01:50:07.828Z,7.38
2018-12-10T01:50:33.930Z,7.45
2018-12-10T01:51:00.031Z,7.48
2018-12-10T01:51:26.135Z,7.4
2018-12-10T01:51:52.240Z,7.45
2018-12-10T01:52:18.403Z,7.45
2018-12-10T01:52:44.519Z,7.45
2018-12-10T01:53:10.624Z,7.43
2018-12-10T01:53:36.721Z,7.47
2018-12-10T01:54:02.828Z,7.5
2018-12-10T01:54:28.964Z,7.45
2018-12-10T01:54:55.073Z,7.39
2018-12-10T01:55:21.179Z,7.42
2018-12-10T01:55:47.285Z,7.42
2018-12-10T01:56:13.447Z,7.45
2018-12-10T01:56:39.562Z,7.4
2018-12-10T01:57:05.664Z,7.47
2018-12-10T01:57:31.773Z,7.47
2018-12-10T01:57:57.879Z,7.53
2018-12-10T01:58:23.984Z,7.5
2018-12-10T01:58:50.090Z,7.54
2018-12-10T01:59:16.235Z,7.48
2018-12-10T01:59:42.337Z,7.53
2018-12-10T02:00:08.443Z,7.53
2018-12-10T02:00:34.579Z,7.6
2018-12-10T02:01:00.689Z,7.61
2018-12-10T02:01:26.796Z,7.67
2018-12-10T02:01:52.929Z,7.7
2018-12-10T02:02:19.033Z,7.7
2018-12-10T02:02:45.141Z,7.72
2018-12-10T02:03:11.246Z,7.61
2018-12-10T02:03:37.380Z,7.61
2018-12-10T02:04:03.485Z,7.63
2018-12-10T02:04:29.593Z,7.57
2018-12-10T02:04:55.702Z,7.67
2018-12-10T02:05:21.804Z,7.56
2018-12-10T02:05:47.911Z,7.58
2018-12-10T02:06:14.009Z,7.66
2018-12-10T02:06:40.120Z,7.51
2018-12-10T02:07:06.250Z,7.66
2018-12-10T02:07:32.383Z,7.58
2018-12-10T02:07:58.525Z,7.58
2018-12-10T02:08:24.636Z,7.6
2018-12-10T02:08:50.740Z,7.5
2018-12-10T02:09:16.884Z,7.54
2018-12-10T02:09:42.952Z,7.53
2018-12-10T02:10:09.082Z,7.57
2018-12-10T02:10:35.182Z,7.51
2018-12-10T02:11:01.289Z,7.51
2018-12-10T02:11:27.417Z,7.51
2018-12-10T02:11:53.547Z,7.53
2018-12-10T02:12:19.678Z,7.53
2018-12-10T02:12:45.785Z,7.51
2018-12-10T02:13:11.925Z,7.4
2018-12-10T02:13:38.026Z,7.45
2018-12-10T02:14:04.132Z,7.43
2018-12-10T02:14:30.237Z,7.47
2018-12-10T02:14:56.378Z,7.47
2018-12-10T02:15:22.517Z,7.42
2018-12-10T02:15:48.618Z,7.39
2018-12-10T02:16:14.753Z,7.51
2018-12-10T02:16:40.863Z,7.42
2018-12-10T02:17:06.968Z,7.39
2018-12-10T02:17:33.121Z,7.39
2018-12-10T02:17:59.233Z,7.4
2018-12-10T02:18:25.440Z,7.33
2018-12-10T02:18:51.545Z,7.35
2018-12-10T02:19:17.650Z,7.45
2018-12-10T02:19:43.759Z,7.35
2018-12-10T02:20:09.864Z,7.32
2018-12-10T02:20:35.964Z,7.45
2018-12-10T02:21:02.098Z,7.25
2018-12-10T02:21:28.204Z,7.38
2018-12-10T02:21:54.304Z,7.29
2018-12-10T02:22:20.409Z,7.24
2018-12-10T02:22:46.523Z,7.31
2018-12-10T02:23:12.629Z,7.29
2018-12-10T02:23:38.764Z,7.29
2018-12-10T02:24:04.868Z,7.39
2018-12-10T02:24:30.992Z,7.42
2018-12-10T02:24:57.165Z,7.36
2018-12-10T02:25:23.267Z,7.42
2018-12-10T02:25:49.374Z,7.45
2018-12-10T02:26:15.476Z,7.29
2018-12-10T02:26:41.576Z,7.28
2018-12-10T02:27:07.689Z,7.25
2018-12-10T02:27:33.789Z,7.24
2018-12-10T02:27:59.898Z,7.24
2018-12-10T02:28:26.009Z,7.31
2018-12-10T02:28:52.142Z,7.25
2018-12-10T02:29:18.250Z,7.28
2018-12-10T02:29:44.348Z,7.24
2018-12-10T02:30:10.478Z,7.28
2018-12-10T02:30:36.618Z,7.23
2018-12-10T02:31:02.783Z,7.17
2018-12-10T02:31:28.916Z,7.25
2018-12-10T02:31:55.025Z,7.17
2018-12-10T02:32:21.185Z,7.15
2018-12-10T02:32:47.323Z,7.18
2018-12-10T02:33:13.426Z,7.18
2018-12-10T02:33:39.531Z,7.23
2018-12-10T02:34:05.635Z,7.18
2018-12-10T02:34:31.741Z,7.23
2018-12-10T02:34:57.883Z,7.14
2018-12-10T02:35:23.988Z,7.14
2018-12-10T02:35:50.142Z,7.15
2018-12-10T02:36:16.243Z,7.2
2018-12-10T02:36:42.347Z,7.18
2018-12-10T02:37:08.450Z,7.07
2018-12-10T02:37:34.600Z,7.07
2018-12-10T02:38:00.713Z,7.11
2018-12-10T02:38:26.844Z,7.07
2018-12-10T02:38:52.950Z,7.07
2018-12-10T02:39:19.085Z,7.1
2018-12-10T02:39:45.186Z,7.14
2018-12-10T02:40:11.315Z,7.11
2018-12-10T02:40:37.416Z,7.07
2018-12-10T02:41:03.521Z,7.1
2018-12-10T02:41:29.627Z,7.11
2018-12-10T02:41:55.734Z,7.11
2018-12-10T02:42:21.901Z,7.1
2018-12-10T02:42:48.027Z,7.06
2018-12-10T02:43:14.199Z,7.06
2018-12-10T02:43:40.339Z,7.14
2018-12-10T02:44:06.451Z,7.13
2018-12-10T02:44:32.571Z,7.11
2018-12-10T02:44:58.720Z,7.1
2018-12-10T02:45:24.788Z,7.11
2018-12-10T02:45:50.927Z,7.14
2018-12-10T02:46:17.184Z,7.17
2018-12-10T02:46:43.250Z,7.15
2018-12-10T02:47:09.357Z,7.23
2018-12-10T02:47:35.517Z,7.15
2018-12-10T02:48:01.619Z,7.15
2018-12-10T02:48:27.724Z,7.15
2018-12-10T02:48:53.831Z,7.07
2018-12-10T02:49:19.959Z,7.18
2018-12-10T02:49:46.097Z,7.11
2018-12-10T02:50:12.202Z,7.13
2018-12-10T02:50:38.308Z,7.15
2018-12-10T02:51:04.413Z,7.03
2018-12-10T02:51:30.518Z,7.05
2018-12-10T02:51:56.677Z,7.14
2018-12-10T02:52:22.841Z,7.06
2018-12-10T02:52:48.974Z,7.02
2018-12-10T02:53:15.080Z,7.07
2018-12-10T02:53:41.241Z,7
2018-12-10T02:54:07.454Z,7.13
2018-12-10T02:54:33.537Z,7.11
2018-12-10T02:54:59.667Z,7.1
2018-12-10T02:55:25.766Z,7.11
2018-12-10T02:55:52.055Z,7.11
2018-12-10T02:56:18.173Z,7.06
2018-12-10T02:56:44.268Z,7.13
2018-12-10T02:57:10.397Z,7.14
2018-12-10T02:57:36.525Z,7.18
2018-12-10T02:58:02.629Z,7.14
2018-12-10T02:58:28.731Z,7.14
2018-12-10T02:58:54.872Z,7.15
2018-12-10T02:59:21.009Z,7.14
2018-12-10T02:59:47.142Z,7.15
2018-12-10T03:00:13.309Z,7.15
2018-12-10T03:00:39.470Z,7.24
2018-12-10T03:01:05.615Z,7.24
2018-12-10T03:01:31.744Z,7.24
2018-12-10T03:01:57.847Z,7.2
2018-12-10T03:02:23.949Z,7.18
2018-12-10T03:02:50.059Z,7.18
2018-12-10T03:03:16.190Z,7.2
2018-12-10T03:03:42.345Z,7.23
2018-12-10T03:04:08.442Z,7.15
2018-12-10T03:04:34.546Z,7.17
2018-12-10T03:05:00.657Z,7.21
2018-12-10T03:05:26.785Z,7.21
2018-12-10T03:05:52.912Z,7.24
2018-12-10T03:06:19.012Z,7.2
2018-12-10T03:06:45.162Z,7.28
2018-12-10T03:07:11.438Z,7.17
2018-12-10T03:07:37.421Z,7.23
2018-12-10T03:08:03.600Z,7.13
2018-12-10T03:08:29.709Z,7.24
2018-12-10T03:08:55.811Z,7.2
2018-12-10T03:09:21.913Z,7.15
2018-12-10T03:09:48.019Z,7.21
2018-12-10T03:10:14.155Z,7.2
2018-12-10T03:10:40.261Z,7.14
2018-12-10T03:11:06.390Z,7.18
2018-12-10T03:11:32.499Z,7.23
2018-12-10T03:11:58.649Z,7.21
2018-12-10T03:12:24.759Z,7.14
2018-12-10T03:12:50.860Z,7.21
2018-12-10T03:13:16.971Z,7.14
2018-12-10T03:13:43.072Z,7.05
2018-12-10T03:14:09.185Z,7.1
2018-12-10T03:14:35.320Z,7.14
2018-12-10T03:15:01.425Z,7.13
2018-12-10T03:15:27.531Z,7.11
2018-12-10T03:15:53.628Z,7.07
2018-12-10T03:16:19.754Z,7.06
2018-12-10T03:16:45.865Z,7.17
2018-12-10T03:17:12.003Z,7.13
2018-12-10T03:17:38.102Z,7.2
2018-12-10T03:18:04.233Z,7.13
2018-12-10T03:18:30.338Z,7.15
2018-12-10T03:18:56.442Z,7.13
2018-12-10T03:19:22.542Z,7.14
2018-12-10T03:19:48.651Z,7.15
2018-12-10T03:20:14.769Z,7.07
2018-12-10T03:20:40.879Z,7.06
2018-12-10T03:21:07.964Z,7.05
2018-12-10T03:21:34.069Z,7.13
2018-12-10T03:22:00.179Z,7.1
2018-12-10T03:22:26.286Z,7.1
2018-12-10T03:22:52.390Z,7.1
2018-12-10T03:23:18.552Z,6.99
2018-12-10T03:23:44.671Z,6.99
2018-12-10T03:24:10.761Z,7.03
2018-12-10T03:24:36.934Z,6.97
2018-12-10T03:25:03.040Z,6.97
2018-12-10T03:25:29.143Z,7.05
2018-12-10T03:25:55.245Z,7.03
2018-12-10T03:26:21.386Z,6.99
2018-12-10T03:26:47.544Z,7.05
2018-12-10T03:27:13.648Z,7
2018-12-10T03:27:39.785Z,7.05
2018-12-10T03:28:05.920Z,7
2018-12-10T03:28:32.107Z,6.99
2018-12-10T03:28:58.235Z,7.06
2018-12-10T03:29:24.371Z,6.99
2018-12-10T03:29:50.496Z,6.97
2018-12-10T03:30:16.654Z,6.99
2018-12-10T03:30:42.807Z,7.03
2018-12-10T03:31:08.971Z,6.99
2018-12-10T03:31:35.138Z,7
2018-12-10T03:32:01.257Z,7
2018-12-10T03:32:27.445Z,6.99
2018-12-10T03:32:53.632Z,6.96
2018-12-10T03:33:19.921Z,6.99
2018-12-10T03:33:46.187Z,6.97
2018-12-10T03:34:12.280Z,6.99
2018-12-10T03:34:38.419Z,6.99
2018-12-10T03:35:04.518Z,7
2018-12-10T03:35:30.687Z,6.97
2018-12-10T03:35:56.792Z,6.97
2018-12-10T03:36:22.953Z,6.99
2018-12-10T03:36:49.087Z,7.14
2018-12-10T03:37:15.353Z,7.14
2018-12-10T03:37:42.408Z,7.11
2018-12-10T03:38:08.525Z,7.05
2018-12-10T03:38:34.654Z,7.05
2018-12-10T03:39:00.753Z,7
2018-12-10T03:39:26.860Z,7.14
2018-12-10T03:39:52.992Z,7.03
2018-12-10T03:40:19.102Z,7.07
2018-12-10T03:40:45.239Z,7.13
2018-12-10T03:41:11.342Z,7.1
2018-12-10T03:41:37.495Z,7.07
2018-12-10T03:42:03.635Z,7.11
2018-12-10T03:42:29.750Z,7.06
2018-12-10T03:42:55.847Z,7.13
2018-12-10T03:43:21.969Z,7.14
2018-12-10T03:43:48.075Z,7.14
2018-12-10T03:44:14.236Z,7.17
2018-12-10T03:44:40.337Z,7.07
2018-12-10T03:45:06.439Z,7.13
2018-12-10T03:45:32.549Z,7.15
2018-12-10T03:45:58.663Z,7.1
2018-12-10T03:46:24.840Z,7.07
2018-12-10T03:46:50.946Z,7.07
2018-12-10T03:47:17.052Z,7.07
2018-12-10T03:47:43.157Z,7.11
2018-12-10T03:48:09.264Z,6.99
2018-12-10T03:48:35.399Z,7.06
2018-12-10T03:49:01.500Z,7.07
2018-12-10T03:49:27.609Z,7.05
2018-12-10T03:49:53.743Z,6.99
2018-12-10T03:50:19.855Z,7.07
2018-12-10T03:50:45.955Z,6.99
2018-12-10T03:51:12.084Z,7.02
2018-12-10T03:51:38.232Z,7.03
2018-12-10T03:52:04.375Z,7.03
2018-12-10T03:52:30.500Z,7.06
2018-12-10T03:52:56.599Z,7.11
2018-12-10T03:53:22.713Z,7.05
2018-12-10T03:53:48.852Z,7.02
2018-12-10T03:54:14.955Z,7.1
2018-12-10T03:54:41.063Z,7
2018-12-10T03:55:07.192Z,7.06
2018-12-10T03:55:33.356Z,6.99
2018-12-10T03:55:59.493Z,7.05
2018-12-10T03:56:25.635Z,7.02
2018-12-10T03:56:51.791Z,7.07
2018-12-10T03:57:17.895Z,7.13
2018-12-10T03:57:44.034Z,7.07
2018-12-10T03:58:10.154Z,7.13
2018-12-10T03:58:36.248Z,7.07
2018-12-10T03:59:02.402Z,7.14
2018-12-10T03:59:28.503Z,7.15
2018-12-10T03:59:54.618Z,7.13
2018-12-10T04:00:20.776Z,7.1
2018-12-10T04:00:46.910Z,7.1
2018-12-10T04:01:13.045Z,7.11
2018-12-10T04:01:39.186Z,7.13
2018-12-10T04:02:05.412Z,7.03
2018-12-10T04:02:31.655Z,6.99
2018-12-10T04:02:57.644Z,6.97
2018-12-10T04:03:23.750Z,6.97
2018-12-10T04:03:49.851Z,6.89
2018-12-10T04:04:15.994Z,6.88
2018-12-10T04:04:42.123Z,6.93
2018-12-10T04:05:08.229Z,6.93
2018-12-10T04:05:34.340Z,6.93
2018-12-10T04:06:00.475Z,6.87
2018-12-10T04:06:26.576Z,6.92
2018-12-10T04:06:52.724Z,6.89
2018-12-10T04:07:18.839Z,6.74
2018-12-10T04:07:44.964Z,6.75
2018-12-10T04:08:11.075Z,6.88
2018-12-10T04:08:37.210Z,6.75
2018-12-10T04:09:03.369Z,6.79
2018-12-10T04:09:29.473Z,6.75
2018-12-10T04:09:55.616Z,6.81
2018-12-10T04:10:21.743Z,6.87
2018-12-10T04:10:47.874Z,6.77
2018-12-10T04:11:13.981Z,6.77
2018-12-10T04:11:40.091Z,6.78
2018-12-10T04:12:06.193Z,6.75
2018-12-10T04:12:32.298Z,6.78
2018-12-10T04:12:58.407Z,6.78
2018-12-10T04:13:24.505Z,6.84
2018-12-10T04:13:50.617Z,6.79
2018-12-10T04:14:16.717Z,6.85
2018-12-10T04:14:42.830Z,6.81
2018-12-10T04:15:08.931Z,6.78
2018-12-10T04:15:35.028Z,6.87
2018-12-10T04:16:01.188Z,6.79
2018-12-10T04:16:27.320Z,6.78
2018-12-10T04:16:53.423Z,6.75
2018-12-10T04:17:19.534Z,6.79
2018-12-10T04:17:45.635Z,6.79
2018-12-10T04:18:11.740Z,6.78
2018-12-10T04:18:37.871Z,6.75
2018-12-10T04:19:03.985Z,6.79
2018-12-10T04:19:30.164Z,6.78
2018-12-10T04:19:56.272Z,6.81
2018-12-10T04:20:22.403Z,6.82
2018-12-10T04:20:48.570Z,6.82
2018-12-10T04:21:14.736Z,6.85
2018-12-10T04:21:40.869Z,6.81
2018-12-10T04:22:06.949Z,6.79
2018-12-10T04:22:33.080Z,6.87
2018-12-10T04:22:59.221Z,6.81
2018-12-10T04:23:25.335Z,6.79
2018-12-10T04:23:51.474Z,6.79
2018-12-10T04:24:17.599Z,6.82
2018-12-10T04:24:45.645Z,6.81
2018-12-10T04:25:09.859Z,6.87
2018-12-10T04:25:35.968Z,6.87
2018-12-10T04:26:02.080Z,6.93
2018-12-10T04:26:28.181Z,6.92
2018-12-10T04:26:54.284Z,6.82
2018-12-10T04:27:20.417Z,6.85
2018-12-10T04:27:46.612Z,6.79
2018-12-10T04:28:12.710Z,6.87
2018-12-10T04:28:38.843Z,6.81
2018-12-10T04:29:05.004Z,6.85
2018-12-10T04:29:31.142Z,6.78
2018-12-10T04:29:57.248Z,6.79
2018-12-10T04:30:23.352Z,6.77
2018-12-10T04:30:49.454Z,6.75
2018-12-10T04:31:15.582Z,6.84
2018-12-10T04:31:41.706Z,6.75
2018-12-10T04:32:07.852Z,6.81
2018-12-10T04:32:33.945Z,6.81
2018-12-10T04:33:00.059Z,6.77
2018-12-10T04:33:26.190Z,6.79
2018-12-10T04:33:52.309Z,6.79
2018-12-10T04:34:18.434Z,6.81
2018-12-10T04:34:44.568Z,6.79
2018-12-10T04:35:10.747Z,6.75
2018-12-10T04:35:36.860Z,6.88
2018-12-10T04:36:03.045Z,6.77
2018-12-10T04:36:29.152Z,6.81
2018-12-10T04:36:55.272Z,6.72
2018-12-10T04:37:21.408Z,6.78
2018-12-10T04:37:47.513Z,6.78
2018-12-10T04:38:13.640Z,6.77
2018-12-10T04:38:39.743Z,6.74
2018-12-10T04:39:05.860Z,6.79
2018-12-10T04:39:32.014Z,6.77
2018-12-10T04:39:58.127Z,6.74
2018-12-10T04:40:24.227Z,6.84
2018-12-10T04:40:50.366Z,6.78
2018-12-10T04:41:16.536Z,6.75
2018-12-10T04:41:42.677Z,6.78
2018-12-10T04:42:08.808Z,6.72
2018-12-10T04:42:34.950Z,6.7
2018-12-10T04:43:01.057Z,6.75
2018-12-10T04:43:27.199Z,6.84
2018-12-10T04:43:53.337Z,6.75
2018-12-10T04:44:19.504Z,6.78
2018-12-10T04:44:45.614Z,6.78
2018-12-10T04:45:11.727Z,6.74
2018-12-10T04:45:37.852Z,6.79
2018-12-10T04:46:03.971Z,6.78
2018-12-10T04:46:30.099Z,6.79
2018-12-10T04:46:56.202Z,6.84
2018-12-10T04:47:22.337Z,6.82
2018-12-10T04:47:48.467Z,6.75
2018-12-10T04:48:14.575Z,6.79
2018-12-10T04:48:40.710Z,6.7
2018-12-10T04:49:06.815Z,6.74
2018-12-10T04:49:32.914Z,6.77
2018-12-10T04:49:59.021Z,6.77
2018-12-10T04:50:25.124Z,6.78
2018-12-10T04:50:51.236Z,6.75
2018-12-10T04:51:17.399Z,6.75
2018-12-10T04:51:43.622Z,6.89
2018-12-10T04:52:09.693Z,6.79
2018-12-10T04:52:35.838Z,6.87
2018-12-10T04:53:01.945Z,6.82
2018-12-10T04:53:28.137Z,6.85
2018-12-10T04:53:54.235Z,6.81
2018-12-10T04:54:20.375Z,6.78
2018-12-10T04:54:47.509Z,6.79
2018-12-10T04:55:13.618Z,6.77
2018-12-10T04:55:39.717Z,6.82
2018-12-10T04:56:05.850Z,6.79
2018-12-10T04:56:31.957Z,6.79
2018-12-10T04:56:58.078Z,6.84
2018-12-10T04:57:24.187Z,6.81
2018-12-10T04:57:50.290Z,6.75
2018-12-10T04:58:16.400Z,6.75
2018-12-10T04:58:42.530Z,6.78
2018-12-10T04:59:08.634Z,6.81
2018-12-10T04:59:34.745Z,6.78
2018-12-10T05:00:02.834Z,6.81
2018-12-10T05:00:29.428Z,6.77
2018-12-10T05:00:55.538Z,6.72
2018-12-10T05:01:21.639Z,6.75
2018-12-10T05:01:47.745Z,6.81
2018-12-10T05:02:13.844Z,6.82
2018-12-10T05:02:39.957Z,6.85
2018-12-10T05:03:06.060Z,6.87
2018-12-10T05:03:32.196Z,6.84
2018-12-10T05:03:58.310Z,6.92
2018-12-10T05:04:24.409Z,6.87
2018-12-10T05:04:50.550Z,6.81
2018-12-10T05:05:16.656Z,6.81
2018-12-10T05:05:42.763Z,6.81
2018-12-10T05:06:08.921Z,6.74
2018-12-10T05:06:35.033Z,6.79
2018-12-10T05:07:01.131Z,6.77
2018-12-10T05:07:27.240Z,6.77
2018-12-10T05:07:53.372Z,6.78
2018-12-10T05:08:20.465Z,6.79
2018-12-10T05:08:46.578Z,6.75
2018-12-10T05:09:12.677Z,6.78
2018-12-10T05:09:38.789Z,6.77
2018-12-10T05:10:04.893Z,6.74
2018-12-10T05:10:31.010Z,6.78
2018-12-10T05:10:57.128Z,6.77
2018-12-10T05:11:23.235Z,6.79
2018-12-10T05:11:49.338Z,6.82
2018-12-10T05:12:15.446Z,6.77
2018-12-10T05:12:41.550Z,6.79
2018-12-10T05:13:07.652Z,6.77
2018-12-10T05:13:33.765Z,6.87
2018-12-10T05:13:59.862Z,6.84
2018-12-10T05:14:26.033Z,6.78
2018-12-10T05:14:52.132Z,6.75
2018-12-10T05:15:18.244Z,6.72
2018-12-10T05:15:44.378Z,6.77
2018-12-10T05:16:10.488Z,6.72
2018-12-10T05:16:36.583Z,6.72
2018-12-10T05:17:02.694Z,6.81
2018-12-10T05:17:28.873Z,6.78
2018-12-10T05:17:54.981Z,6.75
2018-12-10T05:18:21.086Z,6.75
2018-12-10T05:18:47.192Z,6.79
2018-12-10T05:19:13.356Z,6.81
2018-12-10T05:19:39.465Z,6.77
2018-12-10T05:20:05.566Z,6.72
2018-12-10T05:20:31.674Z,6.81
2018-12-10T05:20:57.778Z,6.78
2018-12-10T05:21:24.017Z,6.81
2018-12-10T05:21:50.155Z,6.78
2018-12-10T05:22:16.286Z,6.72
2018-12-10T05:22:42.394Z,6.72
2018-12-10T05:23:08.494Z,6.7
2018-12-10T05:23:34.607Z,6.7
2018-12-10T05:24:00.746Z,6.62
2018-12-10T05:24:26.854Z,6.69
2018-12-10T05:24:52.963Z,6.7
2018-12-10T05:25:19.063Z,6.72
2018-12-10T05:25:45.171Z,6.72
2018-12-10T05:26:11.271Z,6.69
2018-12-10T05:26:37.395Z,6.72
2018-12-10T05:27:03.501Z,6.69
2018-12-10T05:27:29.649Z,6.7
2018-12-10T05:27:55.769Z,6.67
2018-12-10T05:28:21.905Z,6.6
2018-12-10T05:28:48.010Z,6.62
2018-12-10T05:29:14.141Z,6.7
2018-12-10T05:29:40.287Z,6.72
2018-12-10T05:30:06.463Z,6.62
2018-12-10T05:30:32.519Z,6.6
2018-12-10T05:30:58.625Z,6.64
2018-12-10T05:31:24.725Z,6.59
2018-12-10T05:31:50.834Z,6.72
2018-12-10T05:32:16.977Z,6.64
2018-12-10T05:32:43.086Z,6.57
2018-12-10T05:33:09.186Z,6.67
2018-12-10T05:33:35.327Z,6.67
2018-12-10T05:34:01.424Z,6.74
2018-12-10T05:34:27.533Z,6.77
2018-12-10T05:34:53.637Z,6.69
2018-12-10T05:35:19.738Z,6.74
2018-12-10T05:35:45.846Z,6.6
2018-12-10T05:36:11.953Z,6.72
2018-12-10T05:36:38.057Z,6.75
2018-12-10T05:37:04.164Z,6.7
2018-12-10T05:37:30.299Z,6.72
2018-12-10T05:37:56.404Z,6.66
2018-12-10T05:38:22.509Z,6.75
2018-12-10T05:38:48.614Z,6.7
2018-12-10T05:39:14.717Z,6.59
2018-12-10T05:39:40.852Z,6.74
2018-12-10T05:40:06.980Z,6.67
2018-12-10T05:40:33.117Z,6.72
2018-12-10T05:40:59.218Z,6.67
2018-12-10T05:41:25.322Z,6.74
2018-12-10T05:41:51.432Z,6.72
2018-12-10T05:42:17.525Z,6.69
2018-12-10T05:42:43.667Z,6.66
2018-12-10T05:43:09.767Z,6.57
2018-12-10T05:43:35.899Z,6.63
2018-12-10T05:44:02.004Z,6.6
2018-12-10T05:44:28.161Z,6.7
2018-12-10T05:44:54.269Z,6.63
2018-12-10T05:45:20.391Z,6.74
2018-12-10T05:45:46.550Z,6.77
2018-12-10T05:46:12.679Z,6.63
2018-12-10T05:46:38.791Z,6.64
2018-12-10T05:47:04.896Z,6.67
2018-12-10T05:47:31.111Z,6.74
2018-12-10T05:47:57.240Z,6.66
2018-12-10T05:48:23.346Z,6.63
2018-12-10T05:48:49.449Z,6.63
2018-12-10T05:49:15.556Z,6.69
2018-12-10T05:49:41.717Z,6.57